createdAt,value
2018-05-27T00:00:06.571Z,99.70
2018-05-27T00:02:34.046Z,99.70
2018-05-27T00:05:02.250Z,99.80
2018-05-27T00:07:30.472Z,99.90
2018-05-27T00:09:57.918Z,99.80
2018-05-27T00:12:25.709Z,99.80
2018-05-27T00:14:53.169Z,99.80
2018-05-27T00:17:20.611Z,99.80
2018-05-27T00:19:48.060Z,99.90
2018-05-27T00:22:15.500Z,99.90
2018-05-27T00:24:44.038Z,99.90
2018-05-27T00:27:11.901Z,99.90
2018-05-27T00:29:39.356Z,99.90
2018-05-27T00:32:06.923Z,99.90
2018-05-27T00:34:34.378Z,99.90
2018-05-27T00:37:02.428Z,99.90
2018-05-27T00:39:30.645Z,99.90
2018-05-27T00:41:58.096Z,99.90
2018-05-27T00:44:25.551Z,99.90
2018-05-27T00:46:52.999Z,99.90
2018-05-27T00:49:20.451Z,99.90
2018-05-27T00:51:48.661Z,99.90
2018-05-27T00:54:16.105Z,99.90
2018-05-27T00:56:43.604Z,99.90
2018-05-27T00:59:11.045Z,99.90
2018-05-27T01:01:38.499Z,99.90
2018-05-27T01:04:05.958Z,99.90
2018-05-27T01:06:33.410Z,99.90
2018-05-27T01:09:00.882Z,99.90
2018-05-27T01:11:28.317Z,99.90
2018-05-27T01:13:55.781Z,99.90
2018-05-27T01:16:23.220Z,99.90
2018-05-27T01:18:51.432Z,99.90
2018-05-27T01:21:18.884Z,99.90
2018-05-27T01:23:46.334Z,99.90
2018-05-27T01:26:13.812Z,99.90
2018-05-27T01:28:41.283Z,99.90
2018-05-27T01:31:08.709Z,99.90
2018-05-27T01:33:36.937Z,99.90
2018-05-27T01:36:04.395Z,99.80
2018-05-27T01:38:31.853Z,99.90
2018-05-27T01:40:59.301Z,99.90
2018-05-27T01:43:26.760Z,99.90
2018-05-27T01:45:54.984Z,99.90
2018-05-27T01:48:22.431Z,99.90
2018-05-27T01:50:49.897Z,99.90
2018-05-27T01:53:17.341Z,99.90
2018-05-27T01:55:44.839Z,99.90
2018-05-27T01:58:13.080Z,99.90
2018-05-27T02:00:40.640Z,99.90
2018-05-27T02:03:08.081Z,99.90
2018-05-27T02:05:35.529Z,99.90
2018-05-27T02:08:02.976Z,99.90
2018-05-27T02:10:30.426Z,99.90
2018-05-27T02:12:58.643Z,99.90
2018-05-27T02:15:26.075Z,99.90
2018-05-27T02:17:53.548Z,99.90
2018-05-27T02:20:21.020Z,99.90
2018-05-27T02:22:48.482Z,99.90
2018-05-27T02:25:15.942Z,99.90
2018-05-27T02:27:43.375Z,99.90
2018-05-27T02:30:11.597Z,99.90
2018-05-27T02:32:39.060Z,99.90
2018-05-27T02:35:06.505Z,99.90
2018-05-27T02:37:34.292Z,99.90
2018-05-27T02:40:01.720Z,99.90
2018-05-27T02:42:29.160Z,99.90
2018-05-27T02:44:57.377Z,99.90
2018-05-27T02:47:24.829Z,99.90
2018-05-27T02:49:52.272Z,99.90
2018-05-27T02:52:19.727Z,99.90
2018-05-27T02:54:47.954Z,99.90
2018-05-27T02:57:16.176Z,99.90
2018-05-27T02:59:44.399Z,99.90
2018-05-27T03:02:11.851Z,99.90
2018-05-27T03:04:39.307Z,99.90
2018-05-27T03:07:06.770Z,99.90
2018-05-27T03:09:34.214Z,99.90
2018-05-27T03:12:01.670Z,99.90
2018-05-27T03:14:29.127Z,99.90
2018-05-27T03:16:57.332Z,99.90
2018-05-27T03:19:24.788Z,99.90
2018-05-27T03:21:52.264Z,99.90
2018-05-27T03:24:19.718Z,99.90
2018-05-27T03:26:47.176Z,99.90
2018-05-27T03:29:14.623Z,99.90
2018-05-27T03:31:42.085Z,99.90
2018-05-27T03:34:09.548Z,99.90
2018-05-27T03:36:37.000Z,99.90
2018-05-27T03:39:04.463Z,99.90
2018-05-27T03:41:32.607Z,99.90
2018-05-27T03:44:00.829Z,99.90
2018-05-27T03:46:28.284Z,99.90
2018-05-27T03:48:55.727Z,99.90
2018-05-27T03:51:23.955Z,99.90
2018-05-27T03:53:51.395Z,99.90
2018-05-27T03:56:18.842Z,99.90
2018-05-27T03:58:46.636Z,99.90
2018-05-27T04:01:14.086Z,99.90
2018-05-27T04:03:41.538Z,99.90
2018-05-27T04:06:20.801Z,99.90
2018-05-27T04:08:48.250Z,99.90
2018-05-27T04:11:15.737Z,99.90
2018-05-27T04:13:43.178Z,99.90
2018-05-27T04:16:10.629Z,99.90
2018-05-27T04:18:38.104Z,99.90
2018-05-27T04:21:05.534Z,99.90
2018-05-27T04:23:32.966Z,99.90
2018-05-27T04:26:01.184Z,99.90
2018-05-27T04:28:28.668Z,99.90
2018-05-27T04:30:56.104Z,99.90
2018-05-27T04:33:23.788Z,99.90
2018-05-27T04:35:52.003Z,99.90
2018-05-27T04:38:20.224Z,99.90
2018-05-27T04:40:47.672Z,99.90
2018-05-27T04:43:15.127Z,99.90
2018-05-27T04:45:42.573Z,99.90
2018-05-27T04:48:10.777Z,99.60
2018-05-27T04:50:38.235Z,99.50
2018-05-27T04:53:05.680Z,99.40
2018-05-27T04:55:33.376Z,99.20
2018-05-27T04:58:00.847Z,98.80
2018-05-27T05:00:28.291Z,98.60
2018-05-27T05:02:55.745Z,98.40
2018-05-27T05:05:23.225Z,98.30
2018-05-27T05:07:50.670Z,98.10
2018-05-27T05:10:18.123Z,97.90
2018-05-27T05:12:45.581Z,97.80
2018-05-27T05:15:13.048Z,97.70
2018-05-27T05:27:41.581Z,97.00
2018-05-27T05:30:09.000Z,96.90
2018-05-27T05:32:36.894Z,96.90
2018-05-27T05:35:04.409Z,97.00
2018-05-27T05:37:31.871Z,96.80
2018-05-27T05:40:00.171Z,96.80
2018-05-27T05:42:28.027Z,96.80
2018-05-27T05:44:55.563Z,96.80
2018-05-27T05:47:23.015Z,96.40
2018-05-27T05:49:51.578Z,95.80
2018-05-27T05:52:19.010Z,95.80
2018-05-27T05:54:46.449Z,95.60
2018-05-27T05:57:13.900Z,95.80
2018-05-27T05:59:41.559Z,95.40
2018-05-27T06:02:09.981Z,95.20
2018-05-27T06:04:38.536Z,94.50
2018-05-27T06:07:06.060Z,94.50
2018-05-27T06:09:33.544Z,94.20
2018-05-27T06:12:02.430Z,93.80
2018-05-27T06:14:30.662Z,93.70
2018-05-27T06:16:58.104Z,93.70
2018-05-27T06:19:25.889Z,93.60
2018-05-27T06:21:53.335Z,93.30
2018-05-27T06:24:20.791Z,93.20
2018-05-27T06:26:48.285Z,93.50
2018-05-27T06:29:15.771Z,93.20
2018-05-27T06:31:43.217Z,93.10
2018-05-27T06:34:10.880Z,92.80
2018-05-27T06:36:38.312Z,92.50
2018-05-27T06:39:05.757Z,91.60
2018-05-27T06:41:33.212Z,91.10
2018-05-27T06:44:00.657Z,90.90
2018-05-27T06:46:28.871Z,90.20
2018-05-27T06:48:56.327Z,90.20
2018-05-27T06:51:23.772Z,89.00
2018-05-27T06:53:51.575Z,87.00
2018-05-27T06:56:19.015Z,83.70
2018-05-27T06:58:47.349Z,82.60
2018-05-27T07:01:15.313Z,80.60
2018-05-27T07:03:42.752Z,78.70
2018-05-27T07:06:10.196Z,76.60
2018-05-27T07:08:37.645Z,75.40
2018-05-27T07:11:05.171Z,74.20
2018-05-27T07:13:33.638Z,72.40
2018-05-27T07:16:01.141Z,71.30
2018-05-27T07:18:28.604Z,70.40
2018-05-27T07:20:56.045Z,69.50
2018-05-27T07:23:25.793Z,69.70
2018-05-27T07:25:53.220Z,69.70
2018-05-27T07:28:21.465Z,65.20
2018-05-27T07:30:49.616Z,65.10
2018-05-27T07:33:17.914Z,64.30
2018-05-27T07:35:45.673Z,63.80
2018-05-27T07:38:13.118Z,64.30
2018-05-27T07:40:40.567Z,66.10
2018-05-27T07:43:08.008Z,64.70
2018-05-27T07:45:36.230Z,58.40
2018-05-27T07:48:03.669Z,58.40
2018-05-27T07:50:31.107Z,56.20
2018-05-27T07:52:59.313Z,55.20
2018-05-27T07:55:26.916Z,55.20
2018-05-27T07:57:54.396Z,54.20
2018-05-27T08:00:21.825Z,53.70
2018-05-27T08:02:50.292Z,50.00
2018-05-27T08:05:17.732Z,49.90
2018-05-27T08:07:45.192Z,49.60
2018-05-27T08:10:12.992Z,49.80
2018-05-27T08:12:40.976Z,50.90
2018-05-27T08:15:08.408Z,50.80
2018-05-27T08:17:35.862Z,51.10
2018-05-27T08:20:03.318Z,52.20
2018-05-27T08:22:30.754Z,51.80
2018-05-27T08:24:58.969Z,52.40
2018-05-27T08:27:26.413Z,52.40
2018-05-27T08:29:53.845Z,54.10
2018-05-27T08:32:22.054Z,54.40
2018-05-27T08:34:50.671Z,54.40
2018-05-27T08:37:18.100Z,54.40
2018-05-27T08:39:45.541Z,54.30
2018-05-27T08:42:13.755Z,53.00
2018-05-27T08:44:41.203Z,52.90
2018-05-27T08:47:08.660Z,52.20
2018-05-27T08:49:37.192Z,53.10
2018-05-27T08:52:05.104Z,53.30
2018-05-27T08:56:02.910Z,54.60
2018-05-27T08:58:30.483Z,54.70
2018-05-27T09:00:57.931Z,54.90
2018-05-27T09:05:45.280Z,54.50
2018-05-27T09:08:12.737Z,54.50
2018-05-27T09:10:41.578Z,53.10
2018-05-27T09:13:09.019Z,53.10
2018-05-27T09:15:36.460Z,53.00
2018-05-27T09:18:04.166Z,52.10
2018-05-27T09:20:31.596Z,49.70
2018-05-27T09:22:59.058Z,49.30
2018-05-27T09:25:26.513Z,48.30
2018-05-27T09:27:53.957Z,46.70
2018-05-27T09:30:21.414Z,48.00
2018-05-27T09:32:48.861Z,48.40
2018-05-27T09:35:16.630Z,49.30
2018-05-27T09:37:44.058Z,48.50
2018-05-27T09:40:11.517Z,48.00
2018-05-27T09:42:38.967Z,47.90
2018-05-27T09:45:06.454Z,48.30
2018-05-27T09:47:33.910Z,47.70
2018-05-27T09:50:01.347Z,47.30
2018-05-27T09:52:28.793Z,44.30
2018-05-27T09:54:56.241Z,45.30
2018-05-27T09:57:23.727Z,44.60
2018-05-27T09:59:53.015Z,44.40
2018-05-27T10:02:20.434Z,44.60
2018-05-27T10:04:47.889Z,43.80
2018-05-27T10:07:16.141Z,44.80
2018-05-27T10:09:43.624Z,44.80
2018-05-27T10:12:11.832Z,41.40
2018-05-27T10:14:39.275Z,41.30
2018-05-27T10:17:07.492Z,40.70
2018-05-27T10:19:34.923Z,40.70
2018-05-27T10:22:02.396Z,39.80
2018-05-27T10:24:30.661Z,39.00
2018-05-27T10:26:58.108Z,39.50
2018-05-27T10:32:00.158Z,40.90
2018-05-27T10:34:27.731Z,41.00
2018-05-27T10:36:55.821Z,39.40
2018-05-27T10:39:24.117Z,40.50
2018-05-27T10:41:52.333Z,38.70
2018-05-27T10:44:19.788Z,38.60
2018-05-27T10:46:47.495Z,38.50
2018-05-27T10:49:14.971Z,38.40
2018-05-27T10:51:43.319Z,38.30
2018-05-27T10:54:10.751Z,36.90
2018-05-27T10:56:38.204Z,36.30
2018-05-27T10:59:05.659Z,35.50
2018-05-27T11:01:33.362Z,35.80
2018-05-27T11:04:00.810Z,36.50
2018-05-27T11:06:28.259Z,37.30
2018-05-27T11:08:55.705Z,38.00
2018-05-27T11:11:23.924Z,35.50
2018-05-27T11:13:52.151Z,36.30
2018-05-27T11:16:20.347Z,35.50
2018-05-27T11:18:47.800Z,35.40
2018-05-27T11:21:15.258Z,32.80
2018-05-27T11:23:43.468Z,31.50
2018-05-27T11:26:10.916Z,31.50
2018-05-27T11:28:38.370Z,30.40
2018-05-27T11:31:05.809Z,30.80
2018-05-27T11:33:34.756Z,30.50
2018-05-27T11:36:02.230Z,30.40
2018-05-27T11:38:29.688Z,29.90
2018-05-27T11:40:57.141Z,30.10
2018-05-27T11:43:24.581Z,29.90
2018-05-27T11:45:52.025Z,30.10
2018-05-27T11:48:19.479Z,30.00
2018-05-27T11:50:46.979Z,30.50
2018-05-27T11:53:14.476Z,31.60
2018-05-27T11:55:42.837Z,32.10
2018-05-27T11:58:11.483Z,32.10
2018-05-27T12:00:38.939Z,34.00
2018-05-27T12:03:06.692Z,34.60
2018-05-27T12:05:35.591Z,33.70
2018-05-27T12:08:03.658Z,33.60
2018-05-27T12:10:31.866Z,35.30
2018-05-27T12:12:59.319Z,35.30
2018-05-27T12:15:27.888Z,35.90
2018-05-27T12:18:01.148Z,36.30
2018-05-27T12:20:28.627Z,36.30
2018-05-27T12:22:56.841Z,34.50
2018-05-27T12:25:24.278Z,34.50
2018-05-27T12:27:52.499Z,34.20
2018-05-27T12:30:19.948Z,34.20
2018-05-27T12:32:47.403Z,35.80
2018-05-27T12:35:14.845Z,34.60
2018-05-27T12:37:42.285Z,34.60
2018-05-27T12:40:09.736Z,34.80
2018-05-27T12:42:37.171Z,33.10
2018-05-27T12:45:04.616Z,34.80
2018-05-27T12:47:32.057Z,34.40
2018-05-27T12:52:33.355Z,34.30
2018-05-27T12:55:01.153Z,35.20
2018-05-27T12:57:28.595Z,36.20
2018-05-27T12:59:56.131Z,37.20
2018-05-27T13:02:23.576Z,37.60
2018-05-27T13:04:51.007Z,37.90
2018-05-27T13:07:19.206Z,38.40
2018-05-27T13:09:46.669Z,38.40
2018-05-27T13:12:14.890Z,39.60
2018-05-27T13:14:42.352Z,39.60
2018-05-27T13:17:10.319Z,39.80
2018-05-27T13:19:37.746Z,39.40
2018-05-27T13:22:06.199Z,41.50
2018-05-27T13:24:33.656Z,42.50
2018-05-27T13:27:01.119Z,40.80
2018-05-27T13:29:29.387Z,42.40
2018-05-27T13:31:58.748Z,44.10
2018-05-27T13:34:26.175Z,43.40
2018-05-27T13:36:54.391Z,45.00
2018-05-27T13:39:23.583Z,45.00
2018-05-27T13:41:51.796Z,45.80
2018-05-27T13:44:19.236Z,46.50
2018-05-27T13:46:47.451Z,47.00
2018-05-27T13:49:14.933Z,46.70
2018-05-27T13:51:42.486Z,46.70
2018-05-27T13:54:09.922Z,48.40
2018-05-27T13:56:37.376Z,50.10
2018-05-27T13:59:04.871Z,50.80
2018-05-27T14:01:32.302Z,51.60
2018-05-27T14:04:00.553Z,53.60
2018-05-27T14:06:27.999Z,53.40
2018-05-27T14:08:55.452Z,53.60
2018-05-27T14:11:22.905Z,55.50
2018-05-27T14:13:51.111Z,56.60
2018-05-27T14:16:18.556Z,56.60
2018-05-27T14:18:46.011Z,56.90
2018-05-27T14:21:14.230Z,58.20
2018-05-27T14:23:41.684Z,58.20
2018-05-27T14:26:09.158Z,58.20
2018-05-27T14:28:36.642Z,57.80
2018-05-27T14:31:04.074Z,57.20
2018-05-27T14:33:31.541Z,57.70
2018-05-27T14:35:59.060Z,56.90
2018-05-27T14:38:27.484Z,57.10
2018-05-27T14:40:54.964Z,57.10
2018-05-27T14:43:22.392Z,57.00
2018-05-27T14:45:50.869Z,56.40
2018-05-27T14:48:19.401Z,56.00
2018-05-27T14:50:46.831Z,55.90
2018-05-27T14:53:14.288Z,55.60
2018-05-27T14:55:41.732Z,54.00
2018-05-27T14:58:09.176Z,55.00
2018-05-27T15:00:36.619Z,53.70
2018-05-27T15:03:04.832Z,51.80
2018-05-27T15:05:32.306Z,51.80
2018-05-27T15:07:59.751Z,50.80
2018-05-27T15:10:27.224Z,51.50
2018-05-27T15:12:54.677Z,51.40
2018-05-27T15:15:22.125Z,50.80
2018-05-27T15:17:49.601Z,50.30
2018-05-27T15:20:17.032Z,50.30
2018-05-27T15:22:44.512Z,50.30
2018-05-27T15:25:12.016Z,49.70
2018-05-27T15:27:40.171Z,49.00
2018-05-27T15:30:07.611Z,48.40
2018-05-27T15:32:35.059Z,48.20
2018-05-27T15:35:02.539Z,47.40
2018-05-27T15:37:30.000Z,46.80
2018-05-27T15:39:57.440Z,47.00
2018-05-27T15:42:24.901Z,46.90
2018-05-27T15:44:52.487Z,46.70
2018-05-27T15:47:20.722Z,48.10
2018-05-27T15:49:48.157Z,47.80
2018-05-27T15:52:15.606Z,48.30
2018-05-27T15:54:43.070Z,47.50
2018-05-27T15:57:10.529Z,47.90
2018-05-27T15:59:37.979Z,48.00
2018-05-27T16:02:05.432Z,47.00
2018-05-27T16:04:32.935Z,47.40
2018-05-27T16:07:00.403Z,47.30
2018-05-27T16:09:28.863Z,47.30
2018-05-27T16:11:56.317Z,47.20
2018-05-27T16:14:23.750Z,46.80
2018-05-27T16:16:51.302Z,46.50
2018-05-27T16:19:18.805Z,47.00
2018-05-27T16:21:46.257Z,47.90
2018-05-27T16:24:13.703Z,47.40
2018-05-27T16:26:41.155Z,47.10
2018-05-27T16:29:08.624Z,47.10
2018-05-27T16:31:36.066Z,46.70
2018-05-27T16:34:03.520Z,46.30
2018-05-27T16:36:30.960Z,47.40
2018-05-27T16:38:59.165Z,49.40
2018-05-27T16:41:26.662Z,49.40
2018-05-27T16:43:54.063Z,51.00
2018-05-27T16:46:22.309Z,54.10
2018-05-27T16:48:49.760Z,54.00
2018-05-27T16:51:17.208Z,55.70
2018-05-27T16:53:44.665Z,57.60
2018-05-27T16:56:12.239Z,58.90
2018-05-27T17:00:16.911Z,62.30
2018-05-27T17:02:44.323Z,64.10
2018-05-27T17:05:12.046Z,65.40
2018-05-27T17:07:40.248Z,68.40
2018-05-27T17:10:07.696Z,67.70
2018-05-27T17:12:35.916Z,69.10
2018-05-27T17:15:03.356Z,69.10
2018-05-27T17:17:30.799Z,69.40
2018-05-27T17:19:58.388Z,69.90
2018-05-27T17:22:25.833Z,71.00
2018-05-27T17:24:53.264Z,71.60
2018-05-27T17:27:21.483Z,74.00
2018-05-27T17:29:48.952Z,73.90
2018-05-27T17:32:16.413Z,73.90
2018-05-27T17:34:43.962Z,74.10
2018-05-27T17:37:11.412Z,74.80
2018-05-27T17:39:38.848Z,75.70
2018-05-27T17:42:07.060Z,79.20
2018-05-27T17:44:34.510Z,79.10
2018-05-27T17:47:02.085Z,79.90
2018-05-27T17:49:29.552Z,79.80
2018-05-27T17:51:56.964Z,80.10
2018-05-27T17:54:24.801Z,80.30
2018-05-27T17:56:52.266Z,80.60
2018-05-27T17:59:19.694Z,81.60
2018-05-27T18:01:47.127Z,81.30
2018-05-27T18:04:15.356Z,82.10
2018-05-27T18:06:42.773Z,82.10
2018-05-27T18:09:11.003Z,83.10
2018-05-27T18:11:38.462Z,83.10
2018-05-27T18:14:05.990Z,83.60
2018-05-27T18:16:34.178Z,84.30
2018-05-27T18:19:01.617Z,84.30
2018-05-27T18:21:29.308Z,84.70
2018-05-27T18:23:56.740Z,85.40
2018-05-27T18:26:24.188Z,85.80
2018-05-27T18:28:52.383Z,85.60
2018-05-27T18:31:19.816Z,85.50
2018-05-27T18:33:48.046Z,86.50
2018-05-27T18:36:15.495Z,86.40
2018-05-27T18:38:42.960Z,87.20
2018-05-27T18:41:10.474Z,88.30
2018-05-27T18:43:37.912Z,89.20
2018-05-27T18:46:05.368Z,89.50
2018-05-27T18:48:32.834Z,89.90
2018-05-27T18:51:00.303Z,90.10
2018-05-27T18:53:27.770Z,90.50
2018-05-27T18:55:55.197Z,90.90
2018-05-27T18:58:22.671Z,90.90
2018-05-27T19:00:50.211Z,91.10
2018-05-27T19:03:17.653Z,91.50
2018-05-27T19:05:45.179Z,91.60
2018-05-27T19:08:12.784Z,91.90
2018-05-27T19:10:40.406Z,92.30
2018-05-27T19:13:07.904Z,92.40
2018-05-27T19:15:35.516Z,92.70
2018-05-27T19:18:04.251Z,92.70
2018-05-27T19:20:32.466Z,92.90
2018-05-27T19:22:59.911Z,92.90
2018-05-27T19:25:27.423Z,93.20
2018-05-27T19:27:54.894Z,93.30
2018-05-27T19:30:22.358Z,93.50
2018-05-27T19:32:50.609Z,93.80
2018-05-27T19:35:18.081Z,93.80
2018-05-27T19:37:45.540Z,94.10
2018-05-27T19:40:12.993Z,94.40
2018-05-27T19:42:40.558Z,94.50
2018-05-27T19:45:08.027Z,94.50
2018-05-27T19:47:35.472Z,94.60
2018-05-27T19:50:02.946Z,94.60
2018-05-27T19:52:30.379Z,94.70
2018-05-27T19:54:59.404Z,95.10
2018-05-27T19:57:26.856Z,95.10
2018-05-27T19:59:54.303Z,95.10
2018-05-27T20:02:21.748Z,95.20
2018-05-27T20:04:49.532Z,95.30
2018-05-27T20:07:16.975Z,95.40
2018-05-27T20:09:44.421Z,95.40
2018-05-27T20:12:11.964Z,95.50
2018-05-27T20:14:40.183Z,95.40
2018-05-27T20:17:07.617Z,95.40
2018-05-27T20:19:35.322Z,95.30
2018-05-27T20:22:02.772Z,95.30
2018-05-27T20:24:30.312Z,95.20
2018-05-27T20:26:57.980Z,95.20
2018-05-27T20:29:25.427Z,95.20
2018-05-27T20:31:52.871Z,95.20
2018-05-27T20:34:21.236Z,95.30
2018-05-27T20:36:48.698Z,95.30
2018-05-27T20:39:16.189Z,95.50
2018-05-27T20:41:44.145Z,95.50
2018-05-27T20:44:12.356Z,95.50
2018-05-27T20:46:39.796Z,95.50
2018-05-27T20:49:07.259Z,95.50
2018-05-27T20:51:34.700Z,95.60
2018-05-27T20:54:02.910Z,95.70
2018-05-27T20:56:30.420Z,95.70
2018-05-27T20:58:57.889Z,95.80
2018-05-27T21:01:25.364Z,95.90
2018-05-27T21:03:53.592Z,96.00
2018-05-27T21:06:21.033Z,96.00
2018-05-27T21:08:48.460Z,96.10
2018-05-27T21:11:16.710Z,96.30
2018-05-27T21:13:44.107Z,96.20
2018-05-27T21:16:12.321Z,96.30
2018-05-27T21:18:39.928Z,96.30
2018-05-27T21:21:07.375Z,96.30
2018-05-27T21:23:34.846Z,96.50
2018-05-27T21:26:02.324Z,96.40
2018-05-27T21:28:30.692Z,96.60
2018-05-27T21:30:58.167Z,96.60
2018-05-27T21:33:26.374Z,96.80
2018-05-27T21:35:53.841Z,96.80
2018-05-27T21:38:21.293Z,96.80
2018-05-27T21:40:48.714Z,97.00
2018-05-27T21:43:16.171Z,97.10
2018-05-27T21:45:45.373Z,97.10
2018-05-27T21:48:13.656Z,97.30
2018-05-27T21:50:41.124Z,97.20
2018-05-27T21:53:09.328Z,97.40
2018-05-27T21:55:36.768Z,97.40
2018-05-27T21:58:05.000Z,97.70
2018-05-27T22:00:32.431Z,97.70
2018-05-27T22:02:59.888Z,98.00
2018-05-27T22:05:27.328Z,98.20
2018-05-27T22:07:54.772Z,98.30
2018-05-27T22:10:22.368Z,98.30
2018-05-27T22:12:49.845Z,98.40
2018-05-27T22:15:17.315Z,98.50
2018-05-27T22:17:44.817Z,98.50
2018-05-27T22:20:12.260Z,98.60
2018-05-27T22:22:39.706Z,98.80
2018-05-27T22:25:07.919Z,98.90
2018-05-27T22:27:35.385Z,98.90
2018-05-27T22:30:02.829Z,98.90
2018-05-27T22:32:30.277Z,99.00
2018-05-27T22:34:58.735Z,99.10
2018-05-27T22:37:26.194Z,99.20
2018-05-27T22:39:53.629Z,99.20
2018-05-27T22:42:21.842Z,99.50
2018-05-27T22:44:49.574Z,99.50
2018-05-27T22:47:17.811Z,99.40
2018-05-27T22:49:45.248Z,99.40
2018-05-27T22:52:12.712Z,99.40
2018-05-27T22:54:40.155Z,99.50
2018-05-27T22:57:07.591Z,99.90
2018-05-27T22:59:35.813Z,99.80
2018-05-27T23:02:04.021Z,99.80
2018-05-27T23:04:31.470Z,99.80
2018-05-27T23:06:58.952Z,99.90
2018-05-27T23:09:27.181Z,99.80
2018-05-27T23:11:54.635Z,99.70
2018-05-27T23:14:22.123Z,99.80
2018-05-27T23:16:49.592Z,99.80
2018-05-27T23:19:17.040Z,99.90
2018-05-27T23:21:44.487Z,99.90
2018-05-27T23:24:11.945Z,99.90
2018-05-27T23:26:39.663Z,99.90
2018-05-27T23:29:07.868Z,99.90
2018-05-27T23:31:35.348Z,99.90
2018-05-27T23:34:03.025Z,99.90
2018-05-27T23:36:30.478Z,99.90
2018-05-27T23:38:57.914Z,99.90
2018-05-27T23:41:25.360Z,99.90
2018-05-27T23:43:53.563Z,99.90
2018-05-27T23:46:21.022Z,99.90
2018-05-27T23:48:48.475Z,99.90
2018-05-27T23:51:16.071Z,99.90
2018-05-27T23:53:43.519Z,99.90
2018-05-27T23:56:11.914Z,99.90
2018-05-27T23:58:39.623Z,99.90
